createdAt,value
2019-06-08T00:01:42.579Z,28.90
2019-06-08T00:04:14.480Z,28.80
2019-06-08T00:06:46.374Z,28.90
2019-06-08T00:09:20.417Z,28.90
2019-06-08T00:11:51.242Z,28.80
2019-06-08T00:14:23.439Z,28.80
2019-06-08T00:16:55.214Z,28.90
2019-06-08T00:19:27.153Z,28.90
2019-06-08T00:21:58.720Z,28.90
2019-06-08T00:24:30.822Z,28.90
2019-06-08T00:27:02.527Z,29.00
2019-06-08T00:33:03.018Z,28.90
2019-06-08T00:35:35.010Z,28.90
2019-06-08T00:38:06.539Z,28.90
2019-06-08T00:40:38.507Z,29.00
2019-06-08T00:46:52.186Z,29.30
2019-06-08T00:49:24.678Z,29.50
2019-06-08T00:51:56.379Z,29.70
2019-06-08T00:54:29.719Z,29.80
2019-06-08T00:57:01.503Z,29.90
2019-06-08T00:59:33.226Z,30.00
2019-06-08T01:02:04.818Z,30.10
2019-06-08T01:04:36.526Z,30.20
2019-06-08T01:07:08.115Z,30.30
2019-06-08T01:09:40.138Z,30.40
2019-06-08T01:12:11.718Z,30.60
2019-06-08T01:14:43.728Z,30.70
2019-06-08T01:17:15.434Z,30.90
2019-06-08T01:19:47.274Z,30.90
2019-06-08T01:22:19.493Z,30.90
2019-06-08T01:24:51.388Z,31.00
2019-06-08T01:27:23.920Z,31.20
2019-06-08T01:29:56.051Z,31.30
2019-06-08T01:32:28.545Z,31.40
2019-06-08T01:35:00.401Z,31.50
2019-06-08T01:37:32.130Z,31.60
2019-06-08T01:40:04.185Z,31.70
2019-06-08T01:42:35.791Z,31.70
2019-06-08T01:45:09.152Z,31.80
2019-06-08T01:47:41.038Z,31.70
2019-06-08T01:50:12.850Z,31.70
2019-06-08T01:52:44.686Z,31.70
2019-06-08T01:55:16.718Z,31.70
2019-06-08T01:57:48.481Z,31.80
2019-06-08T02:00:29.614Z,31.70
2019-06-08T02:02:53.898Z,31.70
2019-06-08T02:05:28.179Z,31.80
2019-06-08T02:08:02.774Z,31.90
2019-06-08T02:10:35.003Z,32.10
2019-06-08T02:13:08.819Z,32.30
2019-06-08T02:15:39.920Z,32.40
2019-06-08T02:18:11.490Z,32.40
2019-06-08T02:20:43.294Z,32.40
2019-06-08T02:23:15.045Z,32.50
2019-06-08T02:25:46.815Z,32.50
2019-06-08T02:28:18.681Z,32.60
2019-06-08T02:34:19.764Z,32.70
2019-06-08T02:36:51.894Z,32.80
2019-06-08T02:39:23.582Z,32.90
2019-06-08T02:41:55.400Z,32.90
2019-06-08T02:44:28.283Z,32.80
2019-06-08T02:47:00.419Z,32.70
2019-06-08T02:49:33.216Z,32.70
2019-06-08T02:52:05.536Z,32.80
2019-06-08T02:54:39.369Z,33.00
2019-06-08T02:57:10.590Z,33.10
2019-06-08T02:59:42.289Z,33.30
2019-06-08T03:02:14.268Z,33.40
2019-06-08T03:04:46.131Z,33.50
2019-06-08T03:07:18.631Z,33.60
2019-06-08T03:09:50.686Z,33.70
2019-06-08T03:12:22.418Z,33.70
2019-06-08T03:14:54.107Z,33.70
2019-06-08T03:17:25.897Z,33.80
2019-06-08T03:19:57.779Z,33.70
2019-06-08T03:22:29.224Z,33.70
2019-06-08T03:25:01.017Z,33.90
2019-06-08T03:27:34.748Z,33.90
2019-06-08T03:30:16.117Z,33.80
2019-06-08T03:32:50.586Z,33.70
2019-06-08T03:35:13.718Z,33.80
2019-06-08T03:37:45.523Z,33.90
2019-06-08T03:40:17.242Z,33.90
2019-06-08T03:42:50.857Z,34.00
2019-06-08T03:45:22.167Z,34.10
2019-06-08T03:47:53.846Z,34.30
2019-06-08T03:50:25.605Z,34.40
2019-06-08T03:52:57.237Z,34.40
2019-06-08T03:55:29.059Z,34.50
2019-06-08T03:58:00.833Z,34.50
2019-06-08T04:00:32.883Z,34.50
2019-06-08T04:03:04.739Z,34.40
2019-06-08T04:05:37.851Z,34.30
2019-06-08T04:08:10.044Z,34.20
2019-06-08T04:10:42.198Z,34.20
2019-06-08T04:13:15.176Z,34.20
2019-06-08T04:15:47.118Z,34.10
2019-06-08T04:18:19.362Z,34.10
2019-06-08T04:20:51.615Z,34.20
2019-06-08T04:23:23.540Z,34.30
2019-06-08T04:25:55.116Z,34.30
2019-06-08T04:28:27.882Z,34.30
2019-06-08T04:30:59.672Z,34.30
2019-06-08T04:33:31.638Z,34.30
2019-06-08T04:36:03.351Z,34.50
2019-06-08T04:38:35.306Z,34.50
2019-06-08T04:41:06.995Z,34.50
2019-06-08T04:43:40.327Z,34.50
2019-06-08T04:46:12.079Z,34.60
2019-06-08T04:48:45.301Z,34.40
2019-06-08T04:51:16.888Z,34.30
2019-06-08T04:53:49.558Z,34.30
2019-06-08T04:56:21.307Z,34.30
2019-06-08T04:58:52.919Z,34.20
2019-06-08T05:01:24.674Z,34.30
2019-06-08T05:03:56.880Z,34.30
2019-06-08T05:06:28.486Z,34.30
2019-06-08T05:09:00.974Z,34.30
2019-06-08T05:11:36.217Z,34.30
2019-06-08T05:14:06.037Z,34.30
2019-06-08T05:16:39.019Z,34.40
2019-06-08T05:19:10.983Z,34.40
2019-06-08T05:21:43.519Z,34.40
2019-06-08T05:24:15.546Z,34.50
2019-06-08T05:26:47.406Z,34.60
2019-06-08T05:29:19.239Z,34.70
2019-06-08T05:35:32.526Z,34.70
2019-06-08T05:38:04.207Z,34.70
2019-06-08T05:40:36.301Z,34.80
2019-06-08T05:43:07.912Z,34.80
2019-06-08T05:45:39.854Z,34.80
2019-06-08T05:48:11.524Z,34.80
2019-06-08T05:51:00.504Z,34.80
2019-06-08T05:53:16.370Z,34.80
2019-06-08T05:55:48.381Z,34.90
2019-06-08T05:58:20.037Z,34.90
2019-06-08T06:00:52.006Z,34.90
2019-06-08T06:03:23.566Z,35.00
2019-06-08T06:05:55.583Z,35.00
2019-06-08T06:08:27.223Z,35.00
2019-06-08T06:10:59.391Z,35.00
2019-06-08T06:13:31.062Z,34.90
2019-06-08T06:16:02.920Z,34.90
2019-06-08T06:18:35.890Z,34.90
2019-06-08T06:21:11.824Z,34.80
2019-06-08T06:23:41.501Z,34.80
2019-06-08T06:26:13.222Z,34.80
2019-06-08T06:28:45.614Z,34.80
2019-06-08T06:31:17.374Z,34.80
2019-06-08T06:33:50.045Z,34.90
2019-06-08T06:36:21.945Z,35.00
2019-06-08T06:38:53.496Z,35.00
2019-06-08T06:41:25.106Z,35.10
2019-06-08T06:43:56.903Z,35.10
2019-06-08T06:46:28.843Z,35.10
2019-06-08T06:49:00.537Z,35.10
2019-06-08T06:51:33.904Z,35.10
2019-06-08T06:54:05.461Z,35.00
2019-06-08T06:56:37.411Z,35.00
2019-06-08T06:59:09.102Z,35.10
2019-06-08T07:01:41.032Z,35.10
2019-06-08T07:04:12.651Z,35.20
2019-06-08T07:06:44.240Z,35.20
2019-06-08T07:09:15.902Z,35.40
2019-06-08T07:11:48.791Z,35.40
2019-06-08T07:14:20.925Z,35.30
2019-06-08T07:16:52.609Z,35.20
2019-06-08T07:19:24.748Z,35.20
2019-06-08T07:21:56.775Z,35.10
2019-06-08T07:24:28.827Z,35.00
2019-06-08T07:27:00.466Z,34.90
2019-06-08T07:29:35.314Z,35.00
2019-06-08T07:32:07.098Z,35.10
2019-06-08T07:34:41.140Z,35.10
2019-06-08T07:37:11.819Z,35.10
2019-06-08T07:39:43.767Z,35.10
2019-06-08T07:42:15.425Z,35.10
2019-06-08T07:44:48.746Z,35.00
2019-06-08T07:47:20.140Z,34.80
2019-06-08T07:49:53.187Z,34.80
2019-06-08T07:52:24.923Z,34.70
2019-06-08T07:54:56.762Z,34.70
2019-06-08T07:57:28.570Z,34.70
2019-06-08T08:00:00.457Z,34.80
2019-06-08T08:02:32.398Z,34.90
2019-06-08T08:05:04.408Z,34.80
2019-06-08T08:07:36.249Z,34.90
2019-06-08T08:10:09.744Z,35.00
2019-06-08T08:12:43.739Z,35.00
2019-06-08T08:15:15.690Z,35.10
2019-06-08T08:17:48.953Z,35.00
2019-06-08T08:20:22.504Z,35.00
2019-06-08T08:22:57.598Z,34.90
2019-06-08T08:25:28.125Z,34.90
2019-06-08T08:28:01.090Z,34.90
2019-06-08T08:30:33.097Z,35.00
2019-06-08T08:33:07.525Z,35.00
2019-06-08T08:35:38.246Z,35.00
2019-06-08T08:38:10.001Z,35.10
2019-06-08T08:40:42.113Z,35.10
2019-06-08T08:43:13.991Z,35.10
2019-06-08T08:45:47.754Z,35.10
2019-06-08T08:48:25.247Z,35.10
2019-06-08T08:50:52.383Z,35.10
2019-06-08T08:53:24.133Z,35.10
2019-06-08T08:55:59.617Z,35.10
2019-06-08T08:58:29.279Z,35.20
2019-06-08T09:01:03.427Z,35.30
2019-06-08T09:03:34.393Z,35.40
2019-06-08T09:06:08.231Z,35.40
2019-06-08T09:08:39.114Z,35.30
2019-06-08T09:11:11.180Z,35.30
2019-06-08T09:13:43.150Z,35.20
2019-06-08T09:16:17.505Z,35.20
2019-06-08T09:18:48.139Z,35.10
2019-06-08T09:21:20.309Z,35.10
2019-06-08T09:23:52.817Z,35.10
2019-06-08T09:26:25.221Z,35.00
2019-06-08T09:28:58.271Z,35.00
2019-06-08T09:31:30.880Z,35.00
2019-06-08T09:34:09.163Z,35.00
2019-06-08T09:36:37.663Z,35.00
2019-06-08T09:39:13.317Z,34.90
2019-06-08T09:41:47.731Z,34.90
2019-06-08T09:44:18.823Z,34.80
2019-06-08T09:46:50.898Z,34.80
2019-06-08T09:49:22.607Z,34.70
2019-06-08T09:51:55.354Z,34.80
2019-06-08T09:54:28.279Z,34.80
2019-06-08T09:57:02.722Z,34.80
2019-06-08T09:59:33.562Z,34.70
2019-06-08T10:02:08.980Z,34.70
2019-06-08T10:04:38.657Z,34.70
2019-06-08T10:07:10.500Z,34.70
2019-06-08T10:13:23.407Z,34.70
2019-06-08T10:15:57.371Z,34.80
2019-06-08T10:18:28.678Z,34.80
2019-06-08T10:21:01.287Z,34.80
2019-06-08T10:23:34.627Z,34.70
2019-06-08T10:26:06.799Z,34.70
2019-06-08T10:28:39.102Z,34.70
2019-06-08T10:31:10.970Z,34.70
2019-06-08T10:33:43.183Z,34.50
2019-06-08T10:36:15.035Z,34.50
2019-06-08T10:38:48.025Z,34.50
2019-06-08T10:41:21.890Z,34.40
2019-06-08T10:43:54.233Z,34.30
2019-06-08T10:46:26.121Z,34.30
2019-06-08T10:48:59.495Z,34.30
2019-06-08T10:51:31.046Z,34.30
2019-06-08T10:54:04.290Z,34.30
2019-06-08T10:56:38.389Z,34.30
2019-06-08T10:59:11.824Z,34.30
2019-06-08T11:01:42.591Z,34.30
2019-06-08T11:04:14.459Z,34.30
2019-06-08T11:06:47.834Z,34.30
2019-06-08T11:09:19.799Z,34.30
2019-06-08T11:11:51.612Z,34.20
2019-06-08T11:14:23.413Z,34.10
2019-06-08T11:16:58.471Z,34.00
2019-06-08T11:19:30.314Z,34.00
2019-06-08T11:22:05.822Z,33.90
2019-06-08T11:24:35.151Z,33.90
2019-06-08T11:27:10.578Z,33.80
2019-06-08T11:29:39.917Z,33.80
2019-06-08T11:35:53.074Z,33.60
2019-06-08T11:38:24.849Z,33.60
2019-06-08T11:40:57.928Z,33.50
2019-06-08T11:43:29.497Z,33.40
2019-06-08T11:46:02.497Z,33.40
2019-06-08T11:48:34.444Z,33.40
2019-06-08T11:51:07.312Z,33.30
2019-06-08T11:53:39.320Z,33.30
2019-06-08T11:56:13.327Z,33.20
2019-06-08T11:58:44.475Z,33.20
2019-06-08T12:01:18.567Z,33.20
2019-06-08T12:03:49.481Z,33.20
2019-06-08T12:06:23.545Z,33.20
2019-06-08T12:08:54.325Z,33.10
2019-06-08T12:11:28.377Z,33.10
2019-06-08T12:13:59.519Z,33.10
2019-06-08T12:16:31.555Z,33.10
2019-06-08T12:19:04.292Z,33.10
2019-06-08T12:21:36.622Z,33.10
2019-06-08T12:24:08.315Z,33.00
2019-06-08T12:26:40.018Z,33.00
2019-06-08T12:29:13.411Z,33.00
2019-06-08T12:31:44.710Z,33.00
2019-06-08T12:34:18.535Z,33.00
2019-06-08T12:36:49.750Z,33.00
2019-06-08T12:39:21.739Z,32.90
2019-06-08T12:41:53.577Z,32.90
2019-06-08T12:44:26.809Z,32.90
2019-06-08T12:46:58.789Z,32.80
2019-06-08T12:49:30.351Z,32.80
2019-06-08T12:52:02.028Z,32.80
2019-06-08T12:54:34.264Z,32.80
2019-06-08T12:57:07.901Z,32.80
2019-06-08T12:59:39.163Z,32.80
2019-06-08T13:02:15.692Z,32.80
2019-06-08T13:04:44.503Z,32.70
2019-06-08T13:07:17.022Z,32.70
2019-06-08T13:09:49.166Z,32.70
2019-06-08T13:12:21.883Z,32.70
2019-06-08T13:14:54.097Z,32.60
2019-06-08T13:17:27.852Z,32.70
2019-06-08T13:19:59.501Z,32.70
2019-06-08T13:22:31.562Z,32.70
2019-06-08T13:25:15.767Z,32.70
2019-06-08T13:27:37.934Z,32.70
2019-06-08T13:30:09.598Z,32.70
2019-06-08T13:32:41.351Z,32.60
2019-06-08T13:35:14.344Z,32.60
2019-06-08T13:37:47.438Z,32.70
2019-06-08T13:40:23.237Z,32.70
2019-06-08T13:42:52.599Z,32.60
2019-06-08T13:45:24.646Z,32.70
2019-06-08T13:47:58.541Z,32.60
2019-06-08T13:50:29.582Z,32.60
2019-06-08T13:53:01.482Z,32.60
2019-06-08T13:55:48.524Z,32.50
2019-06-08T13:58:07.231Z,32.50
2019-06-08T14:00:39.135Z,32.50
2019-06-08T14:03:10.885Z,32.50
2019-06-08T14:05:42.711Z,32.50
2019-06-08T14:08:14.568Z,32.40
2019-06-08T14:10:48.147Z,32.40
2019-06-08T14:13:24.555Z,32.30
2019-06-08T14:15:52.641Z,32.20
2019-06-08T14:18:28.905Z,32.20
2019-06-08T14:20:59.528Z,32.10
2019-06-08T14:23:31.241Z,32.00
2019-06-08T14:26:03.199Z,32.00
2019-06-08T14:28:34.928Z,32.00
2019-06-08T14:34:34.871Z,31.90
2019-06-08T14:37:08.481Z,31.90
2019-06-08T14:39:39.513Z,31.90
2019-06-08T14:42:11.585Z,31.90
2019-06-08T14:44:43.271Z,31.80
2019-06-08T14:47:18.788Z,31.80
2019-06-08T14:49:50.462Z,31.90
2019-06-08T14:52:23.834Z,31.90
2019-06-08T14:54:55.341Z,31.80
2019-06-08T14:57:28.197Z,31.80
2019-06-08T15:00:00.286Z,31.70
2019-06-08T15:02:32.003Z,31.70
2019-06-08T15:05:03.638Z,31.60
2019-06-08T15:07:35.437Z,31.60
2019-06-08T15:10:09.841Z,31.50
2019-06-08T15:12:40.866Z,31.40
2019-06-08T15:15:12.466Z,31.40
2019-06-08T15:17:44.427Z,31.40
2019-06-08T15:20:17.580Z,31.40
2019-06-08T15:22:49.479Z,31.30
2019-06-08T15:25:21.153Z,31.30
2019-06-08T15:27:53.079Z,31.30
2019-06-08T15:30:25.136Z,31.30
2019-06-08T15:32:58.633Z,31.30
2019-06-08T15:35:30.016Z,31.30
2019-06-08T15:38:01.812Z,31.40
2019-06-08T15:40:33.327Z,31.40
2019-06-08T15:43:05.058Z,31.40
2019-06-08T15:45:36.579Z,31.30
2019-06-08T15:48:08.229Z,31.40
2019-06-08T15:50:40.162Z,31.30
2019-06-08T15:53:12.017Z,31.30
2019-06-08T15:55:43.834Z,31.30
2019-06-08T15:58:17.826Z,31.30
2019-06-08T16:00:48.563Z,31.30
2019-06-08T16:03:20.247Z,31.30
2019-06-08T16:05:52.029Z,31.30
2019-06-08T16:08:23.767Z,31.30
2019-06-08T16:10:55.705Z,31.30
2019-06-08T16:13:28.479Z,31.30
2019-06-08T16:16:00.426Z,31.30
2019-06-08T16:18:33.559Z,31.30
2019-06-08T16:21:05.582Z,31.30
2019-06-08T16:23:37.286Z,31.30
2019-06-08T16:26:09.069Z,31.30
2019-06-08T16:28:40.798Z,31.30
2019-06-08T16:31:12.617Z,31.30
2019-06-08T16:33:44.362Z,31.20
2019-06-08T16:36:16.193Z,31.20
2019-06-08T16:38:48.239Z,31.20
2019-06-08T16:41:20.125Z,31.20
2019-06-08T16:43:52.210Z,31.20
2019-06-08T16:46:23.973Z,31.10
2019-06-08T16:48:56.014Z,31.10
2019-06-08T16:51:27.860Z,31.10
2019-06-08T16:53:59.721Z,31.10
2019-06-08T16:56:31.983Z,31.00
2019-06-08T16:59:03.823Z,31.00
2019-06-08T17:01:36.746Z,31.00
2019-06-08T17:04:09.052Z,30.90
2019-06-08T17:06:40.623Z,30.90
2019-06-08T17:09:12.449Z,30.90
2019-06-08T17:11:44.042Z,30.80
2019-06-08T17:14:16.099Z,30.80
2019-06-08T17:16:47.706Z,30.80
2019-06-08T17:19:19.479Z,30.80
2019-06-08T17:21:51.154Z,30.80
2019-06-08T17:24:25.490Z,30.80
2019-06-08T17:26:57.164Z,30.70
2019-06-08T17:29:28.960Z,30.70
2019-06-08T17:35:42.344Z,30.60
2019-06-08T17:38:14.274Z,30.60
2019-06-08T17:40:46.180Z,30.60
2019-06-08T17:43:18.025Z,30.60
2019-06-08T17:45:49.927Z,30.50
2019-06-08T17:48:22.737Z,30.50
2019-06-08T17:50:54.830Z,30.40
2019-06-08T17:53:26.718Z,30.40
2019-06-08T17:55:58.607Z,30.40
2019-06-08T17:58:30.254Z,30.40
2019-06-08T18:01:02.035Z,30.40
2019-06-08T18:03:33.823Z,30.40
2019-06-08T18:06:07.301Z,30.30
2019-06-08T18:08:40.645Z,30.30
2019-06-08T18:11:11.729Z,30.30
2019-06-08T18:13:45.338Z,30.30
2019-06-08T18:16:17.545Z,30.20
2019-06-08T18:18:49.138Z,30.20
2019-06-08T18:21:21.013Z,30.20
2019-06-08T18:23:52.739Z,30.20
2019-06-08T18:26:24.863Z,30.20
2019-06-08T18:28:58.134Z,30.10
2019-06-08T18:31:29.670Z,30.10
2019-06-08T18:34:02.104Z,30.10
2019-06-08T18:36:34.752Z,30.10
2019-06-08T18:39:07.291Z,30.00
2019-06-08T18:41:40.856Z,30.00
2019-06-08T18:44:12.167Z,30.00
2019-06-08T18:46:45.016Z,30.00
2019-06-08T18:49:17.851Z,29.90
2019-06-08T18:51:50.433Z,29.90
2019-06-08T18:54:22.098Z,29.90
2019-06-08T18:56:54.570Z,29.90
2019-06-08T18:59:28.371Z,29.90
2019-06-08T19:01:59.230Z,29.90
2019-06-08T19:04:31.098Z,29.90
2019-06-08T19:07:03.278Z,29.90
2019-06-08T19:09:37.492Z,29.90
2019-06-08T19:12:08.753Z,29.90
2019-06-08T19:14:41.008Z,29.80
2019-06-08T19:17:13.655Z,29.90
2019-06-08T19:19:48.468Z,29.80
2019-06-08T19:22:18.941Z,29.80
2019-06-08T19:24:50.898Z,29.80
2019-06-08T19:27:23.160Z,29.80
2019-06-08T19:29:57.852Z,29.80
2019-06-08T19:32:29.849Z,29.80
2019-06-08T19:35:01.365Z,29.80
2019-06-08T19:37:33.354Z,29.80
2019-06-08T19:40:07.058Z,29.80
2019-06-08T19:42:49.195Z,29.70
2019-06-08T19:45:10.972Z,29.70
2019-06-08T19:47:43.062Z,29.70
2019-06-08T19:50:17.112Z,29.60
2019-06-08T19:52:53.065Z,29.60
2019-06-08T19:55:21.098Z,29.60
2019-06-08T19:57:53.095Z,29.60
2019-06-08T20:00:27.635Z,29.50
2019-06-08T20:02:58.753Z,29.50
2019-06-08T20:05:30.465Z,29.50
2019-06-08T20:08:02.561Z,29.40
2019-06-08T20:10:34.438Z,29.50
2019-06-08T20:13:07.884Z,29.50
2019-06-08T20:15:43.355Z,29.50
2019-06-08T20:18:12.701Z,29.40
2019-06-08T20:20:44.353Z,29.40
2019-06-08T20:23:18.001Z,29.40
2019-06-08T20:25:51.247Z,29.40
2019-06-08T20:28:24.425Z,29.40
2019-06-08T20:34:38.147Z,29.30
2019-06-08T20:37:10.107Z,29.30
2019-06-08T20:39:57.289Z,29.20
2019-06-08T20:42:17.200Z,29.20
2019-06-08T20:44:49.061Z,29.20
2019-06-08T20:47:21.793Z,29.10
2019-06-08T20:49:53.686Z,29.20
2019-06-08T20:52:25.343Z,29.10
2019-06-08T20:54:58.243Z,29.10
2019-06-08T20:57:30.148Z,29.10
2019-06-08T21:00:08.164Z,29.10
2019-06-08T21:02:37.109Z,29.10
2019-06-08T21:05:08.599Z,29.10
2019-06-08T21:07:40.358Z,29.10
2019-06-08T21:10:12.339Z,29.10
2019-06-08T21:12:45.182Z,29.10
2019-06-08T21:15:17.760Z,29.20
2019-06-08T21:17:50.753Z,29.10
2019-06-08T21:20:22.366Z,29.10
2019-06-08T21:22:55.038Z,29.10
2019-06-08T21:25:28.115Z,29.10
2019-06-08T21:27:59.978Z,29.10
2019-06-08T21:30:31.999Z,29.10
2019-06-08T21:33:03.780Z,29.10
2019-06-08T21:35:35.711Z,29.10
2019-06-08T21:38:20.230Z,29.10
2019-06-08T21:40:40.471Z,29.10
2019-06-08T21:43:12.295Z,29.00
2019-06-08T21:45:43.892Z,29.00
2019-06-08T21:48:15.553Z,28.90
2019-06-08T21:50:49.010Z,28.90
2019-06-08T21:53:20.489Z,28.90
2019-06-08T21:55:52.122Z,28.80
2019-06-08T21:58:24.126Z,28.80
2019-06-08T22:00:58.066Z,28.70
2019-06-08T22:03:29.102Z,28.60
2019-06-08T22:06:00.715Z,28.60
2019-06-08T22:08:32.675Z,28.50
2019-06-08T22:11:04.390Z,28.50
2019-06-08T22:13:37.398Z,28.50
2019-06-08T22:16:09.271Z,28.50
2019-06-08T22:18:41.271Z,28.50
2019-06-08T22:21:12.958Z,28.60
2019-06-08T22:23:44.776Z,28.50
2019-06-08T22:26:17.789Z,28.60
2019-06-08T22:28:49.874Z,28.60
2019-06-08T22:31:23.192Z,28.60
2019-06-08T22:33:55.916Z,28.60
2019-06-08T22:36:27.889Z,28.60
2019-06-08T22:39:00.978Z,28.60
2019-06-08T22:41:32.604Z,28.50
2019-06-08T22:44:04.566Z,28.40
2019-06-08T22:46:37.575Z,28.50
2019-06-08T22:49:09.702Z,28.50
2019-06-08T22:51:41.283Z,28.50
2019-06-08T22:54:13.206Z,28.50
2019-06-08T22:56:44.871Z,28.50
2019-06-08T22:59:17.545Z,28.50
2019-06-08T23:01:49.543Z,28.60
2019-06-08T23:04:21.360Z,28.60
2019-06-08T23:06:54.830Z,28.60
2019-06-08T23:09:28.208Z,28.60
2019-06-08T23:12:01.338Z,28.70
2019-06-08T23:14:32.166Z,28.70
2019-06-08T23:17:04.004Z,28.70
2019-06-08T23:19:37.418Z,28.70
2019-06-08T23:22:09.269Z,28.70
2019-06-08T23:24:41.247Z,28.70
2019-06-08T23:27:12.746Z,28.70
2019-06-08T23:29:44.597Z,28.70
2019-06-08T23:35:56.809Z,28.70
2019-06-08T23:38:07.702Z,28.80
2019-06-08T23:40:39.055Z,28.80
2019-06-08T23:43:10.691Z,28.80
2019-06-08T23:45:42.235Z,28.80
2019-06-08T23:48:13.902Z,28.90
2019-06-08T23:50:47.377Z,29.00
2019-06-08T23:53:18.805Z,29.00
2019-06-08T23:55:50.799Z,29.10
2019-06-08T23:58:22.593Z,29.30
